Time;durP1;ratioP1;P1;durP2;ratioP2;P2;SDS_P1;SDS_P2;PMS_P1;PMS_P2;Temp;Humidity;BMP_temperature;BMP_pressure;BME280_temperature;BME280_humidity;BME280_pressure;Samples;Min_cycle;Max_cycle;Signal;HPM_P1;HPM_P2
2021/11/15 00:02:10;;;;;;;54.75;27.05;;;;;;;11.04;100.00;98674.81;5074072;28;20028;-92
2021/11/15 00:04:38;;;;;;;52.58;26.30;;;;;;;11.07;100.00;98688.00;5074278;28;20041;-92
2021/11/15 00:07:05;;;;;;;55.38;28.23;;;;;;;10.97;100.00;98675.88;5076076;28;20041;-92
2021/11/15 00:09:31;;;;;;;53.15;27.13;;;;;;;10.92;100.00;98664.53;5076605;28;20041;-92
2021/11/15 00:11:57;;;;;;;55.25;27.15;;;;;;;11.07;100.00;98674.69;5076092;28;20049;-90
2021/11/15 00:14:23;;;;;;;50.30;25.30;;;;;;;10.85;100.00;98642.56;5075570;28;20039;-93
2021/11/15 00:16:49;;;;;;;52.40;26.00;;;;;;;10.85;100.00;98638.09;5075442;28;20037;-92
2021/11/15 00:19:15;;;;;;;49.05;23.98;;;;;;;10.88;100.00;98643.31;5072936;28;20045;-92
2021/11/15 00:21:42;;;;;;;48.03;24.83;;;;;;;10.87;100.00;98641.59;5076010;28;20032;-92
2021/11/15 00:24:09;;;;;;;42.90;20.58;;;;;;;10.89;100.00;98634.44;5075171;28;20058;-93
2021/11/15 00:26:35;;;;;;;46.28;21.90;;;;;;;10.89;100.00;98629.09;5072551;28;20063;-93
2021/11/15 00:29:01;;;;;;;47.42;22.73;;;;;;;10.98;100.00;98651.03;5072592;28;20049;-92
2021/11/15 00:31:27;;;;;;;41.08;19.33;;;;;;;11.02;100.00;98655.34;5070583;28;20123;-93
2021/11/15 00:33:53;;;;;;;45.40;19.75;;;;;;;11.06;100.00;98652.53;5073464;28;20731;-92
2021/11/15 00:36:20;;;;;;;42.33;20.67;;;;;;;11.05;100.00;98648.13;5073925;28;20036;-93
2021/11/15 00:38:49;;;;;;;41.38;20.63;;;;;;;10.88;100.00;98624.69;5074806;28;20190;-93
2021/11/15 00:41:15;;;;;;;43.50;19.23;;;;;;;10.85;100.00;98619.47;5074313;28;20033;-93
2021/11/15 00:43:42;;;;;;;40.58;19.15;;;;;;;10.87;100.00;98636.25;5071112;28;20040;-91
2021/11/15 00:46:08;;;;;;;35.30;17.33;;;;;;;10.87;100.00;98635.41;5066197;28;20506;-94
2021/11/15 00:48:34;;;;;;;39.33;18.20;;;;;;;10.90;100.00;98641.47;5073233;28;20041;-92
2021/11/15 00:51:00;;;;;;;33.65;16.45;;;;;;;10.86;100.00;98620.34;5073190;28;20040;-93
2021/11/15 00:53:26;;;;;;;36.75;16.90;;;;;;;10.90;100.00;98633.50;5073415;28;20043;-93
2021/11/15 00:55:54;;;;;;;38.78;17.40;;;;;;;10.93;100.00;98634.31;5070876;28;20916;-93
2021/11/15 00:58:20;;;;;;;36.20;16.80;;;;;;;10.74;100.00;98610.09;5061013;28;20049;-93
2021/11/15 01:00:46;;;;;;;36.80;18.05;;;;;;;10.78;100.00;98625.91;5056982;28;20059;-93
2021/11/15 01:03:13;;;;;;;37.65;18.45;;;;;;;10.76;100.00;98617.09;5049140;28;20520;-93
2021/11/15 01:05:41;;;;;;;37.28;17.58;;;;;;;10.71;100.00;98634.97;5055227;28;20037;-94
2021/11/15 01:08:07;;;;;;;39.80;18.13;;;;;;;10.55;100.00;98607.97;5058681;28;20087;-92
2021/11/15 01:10:34;;;;;;;38.95;18.70;;;;;;;10.53;100.00;98614.25;5059447;28;20037;-92
2021/11/15 01:13:02;;;;;;;37.28;18.95;;;;;;;10.41;100.00;98600.41;5058340;28;20390;-93
2021/11/15 01:15:29;;;;;;;37.92;18.70;;;;;;;10.45;100.00;98612.69;5055809;28;20107;-93
2021/11/15 01:17:56;;;;;;;39.90;18.27;;;;;;;10.38;100.00;98607.59;5053808;28;20137;-92
2021/11/15 01:20:26;;;;;;;38.00;17.27;;;;;;;10.38;100.00;98605.78;5056561;28;20128;-92
2021/11/15 01:22:52;;;;;;;38.45;17.27;;;;;;;10.30;100.00;98601.63;5056806;28;20045;-93
2021/11/15 01:25:18;;;;;;;35.85;16.02;;;;;;;10.36;100.00;98617.41;5057385;28;20280;-93
2021/11/15 01:27:44;;;;;;;35.67;16.50;;;;;;;10.37;100.00;98608.53;5057144;28;20041;-93
2021/11/15 01:30:14;;;;;;;28.90;15.05;;;;;;;10.32;100.00;98605.09;5056314;28;20049;-93
2021/11/15 01:32:41;;;;;;;30.67;14.30;;;;;;;10.39;100.00;98590.75;5057631;28;20033;-92
2021/11/15 01:35:08;;;;;;;30.05;14.93;;;;;;;10.39;100.00;98580.97;5053080;28;20053;-93
2021/11/15 01:37:35;;;;;;;29.15;13.63;;;;;;;10.61;100.00;98593.63;5058143;28;20083;-93
2021/11/15 01:40:02;;;;;;;28.05;13.73;;;;;;;10.47;100.00;98578.97;5055287;28;20463;-93
2021/11/15 01:42:28;;;;;;;34.00;15.15;;;;;;;10.47;100.00;98607.31;5057642;28;20057;-93
2021/11/15 01:44:54;;;;;;;32.72;15.25;;;;;;;10.35;100.00;98600.59;5056354;28;20033;-93
2021/11/15 01:47:22;;;;;;;37.08;16.85;;;;;;;10.26;100.00;98588.41;5061292;28;20067;-93
2021/11/15 01:49:48;;;;;;;37.63;17.13;;;;;;;10.23;100.00;98587.59;5057575;28;20040;-94
2021/11/15 01:52:14;;;;;;;33.28;16.77;;;;;;;10.08;100.00;98568.53;5059190;28;20055;-93
2021/11/15 01:54:40;;;;;;;30.90;15.98;;;;;;;9.89;100.00;98556.69;5056517;28;20041;-92
2021/11/15 01:57:07;;;;;;;34.55;17.02;;;;;;;9.93;100.00;98573.41;5058179;28;20044;-93
2021/11/15 01:59:33;;;;;;;36.03;17.30;;;;;;;10.13;100.00;98568.41;5059654;28;20059;-93
2021/11/15 02:01:59;;;;;;;32.30;16.67;;;;;;;10.40;100.00;98560.56;5059046;28;20048;-92
2021/11/15 02:04:27;;;;;;;35.75;16.67;;;;;;;10.48;100.00;98559.44;5058969;28;20048;-92
2021/11/15 02:06:53;;;;;;;37.75;16.58;;;;;;;10.67;100.00;98561.53;5059909;28;20037;-93
2021/11/15 02:09:19;;;;;;;30.80;14.52;;;;;;;10.72;99.34;98542.78;5056165;28;20068;-92
2021/11/15 02:11:45;;;;;;;32.22;14.73;;;;;;;10.88;98.40;98560.84;5057688;28;20044;-93
2021/11/15 02:14:11;;;;;;;28.85;13.27;;;;;;;10.83;98.21;98546.81;5057064;28;20049;-94
2021/11/15 02:16:37;;;;;;;29.70;13.52;;;;;;;10.78;98.41;98550.53;5056086;28;20037;-93
2021/11/15 02:19:04;;;;;;;26.52;12.85;;;;;;;10.72;98.58;98540.13;5057562;28;20041;-93
2021/11/15 02:21:33;;;;;;;26.73;12.85;;;;;;;10.80;97.41;98536.31;5058666;28;20095;-92
2021/11/15 02:23:58;;;;;;;;;;;;;;;10.95;96.99;98558.88;5059148;28;20068;-93
2021/11/15 02:26:25;;;;;;;27.85;12.30;;;;;;;10.72;96.36;98534.81;5057486;28;19921;-93
2021/11/15 02:28:55;;;;;;;26.05;12.13;;;;;;;10.77;97.66;98546.16;5058144;28;20040;-93
2021/11/15 02:31:23;;;;;;;24.27;12.75;;;;;;;10.98;94.30;98528.66;5056719;28;20053;-93
2021/11/15 02:33:51;;;;;;;23.70;11.65;;;;;;;11.27;93.65;98548.97;5057088;28;20041;-94
2021/11/15 02:36:18;;;;;;;25.55;12.48;;;;;;;11.23;93.07;98537.56;5056763;28;20040;-93
2021/11/15 02:38:48;;;;;;;24.05;10.88;;;;;;;11.19;93.73;98543.00;5054495;28;20037;-93
2021/11/15 02:41:14;;;;;;;20.48;10.75;;;;;;;11.02;93.47;98517.84;5055544;28;20134;-94
2021/11/15 02:43:40;;;;;;;22.52;11.00;;;;;;;11.10;93.21;98541.53;5055682;28;20044;-93
2021/11/15 02:46:06;;;;;;;22.70;10.32;;;;;;;10.96;94.45;98543.78;5055149;28;20143;-93
2021/11/15 02:48:32;;;;;;;22.60;11.88;;;;;;;10.85;95.15;98544.13;5056576;28;20398;-94
2021/11/15 02:50:58;;;;;;;26.63;11.43;;;;;;;10.76;96.87;98537.31;5056685;28;20059;-93
2021/11/15 02:53:24;;;;;;;22.13;10.75;;;;;;;10.82;96.90;98558.41;5056815;28;20037;-94
2021/11/15 02:55:52;;;;;;;21.88;11.15;;;;;;;10.73;95.56;98536.53;5056167;28;20120;-94
2021/11/15 02:58:17;;;;;;;27.98;11.55;;;;;;;10.62;97.00;98531.53;5056509;28;20129;-94
2021/11/15 03:00:46;;;;;;;22.52;11.23;;;;;;;10.46;98.27;98545.31;5055453;28;20067;-93
2021/11/15 03:03:13;;;;;;;22.80;10.68;;;;;;;10.37;100.00;98550.03;5054587;28;20041;-92
2021/11/15 03:05:41;;;;;;;19.98;9.82;;;;;;;10.53;96.99;98540.66;5055441;28;20041;-94
2021/11/15 03:08:08;;;;;;;22.70;10.55;;;;;;;10.50;96.95;98542.56;5054579;28;20037;-94
2021/11/15 03:10:35;;;;;;;22.25;10.30;;;;;;;10.43;98.64;98542.75;5054426;28;20067;-94
2021/11/15 03:13:05;;;;;;;22.05;10.90;;;;;;;10.29;99.63;98544.94;5054405;28;20099;-93
2021/11/15 03:15:35;;;;;;;24.83;12.02;;;;;;;10.23;100.00;98548.59;5044028;28;20143;-94
2021/11/15 03:18:04;;;;;;;21.00;10.55;;;;;;;10.16;100.00;98557.69;5054642;28;20049;-94
2021/11/15 03:20:32;;;;;;;22.13;11.13;;;;;;;9.96;100.00;98537.00;5054072;28;20513;-93
2021/11/15 03:22:58;;;;;;;23.13;11.40;;;;;;;10.06;100.00;98553.53;5053977;28;20060;-94
2021/11/15 03:25:25;;;;;;;25.13;11.63;;;;;;;10.06;100.00;98558.84;5053775;28;20048;-93
2021/11/15 03:27:52;;;;;;;22.85;10.52;;;;;;;9.94;100.00;98551.25;5054120;28;20072;-95
2021/11/15 03:30:19;;;;;;;23.50;10.25;;;;;;;9.94;100.00;98561.88;5053807;28;20091;-93
2021/11/15 03:32:47;;;;;;;22.50;11.25;;;;;;;9.85;100.00;98550.59;5054013;28;20132;-93
2021/11/15 03:35:14;;;;;;;24.67;11.52;;;;;;;9.85;100.00;98557.69;5054088;28;20037;-93
2021/11/15 03:37:41;;;;;;;24.48;11.32;;;;;;;9.78;100.00;98551.69;5054067;28;20044;-93
2021/11/15 03:40:09;;;;;;;22.98;11.60;;;;;;;9.83;100.00;98557.72;5054154;28;20044;-93
2021/11/15 03:42:36;;;;;;;22.57;10.77;;;;;;;9.80;100.00;98552.50;5054292;28;20049;-93
2021/11/15 03:45:03;;;;;;;23.05;11.18;;;;;;;9.79;100.00;98550.75;5053128;28;20499;-94
2021/11/15 03:47:31;;;;;;;23.52;10.82;;;;;;;9.76;100.00;98547.28;5053973;28;20502;-94
2021/11/15 03:49:57;;;;;;;28.75;12.35;;;;;;;9.87;100.00;98563.81;5053614;28;20437;-94
2021/11/15 03:52:22;;;;;;;24.02;11.15;;;;;;;9.79;100.00;98548.09;5053710;28;20053;-93
2021/11/15 03:54:49;;;;;;;25.02;10.88;;;;;;;9.84;100.00;98546.16;5053924;28;20041;-94
2021/11/15 03:57:15;;;;;;;23.70;10.48;;;;;;;9.78;100.00;98526.88;5054019;28;20053;-94
2021/11/15 03:59:41;;;;;;;21.30;10.57;;;;;;;10.28;100.00;98544.03;5053709;28;20429;-92
2021/11/15 04:02:07;;;;;;;20.00;9.38;;;;;;;11.00;95.35;98542.78;5053527;28;20590;-94
2021/11/15 04:04:50;;;;;;;16.70;9.18;;;;;;;11.14;93.04;98524.53;5054768;28;20044;-93
2021/11/15 04:07:26;;;;;;;17.40;9.15;;;;;;;11.40;90.14;98518.34;5055645;28;20037;-94
2021/11/15 04:09:53;;;;;;;17.23;9.13;;;;;;;11.61;88.03;98522.06;5054988;28;20087;-93
2021/11/15 04:12:19;;;;;;;17.23;8.80;;;;;;;11.75;88.12;98548.19;5054440;28;20068;-94
2021/11/15 04:14:45;;;;;;;16.55;8.23;;;;;;;11.67;88.25;98545.81;5055063;28;20041;-92
2021/11/15 04:17:11;;;;;;;16.10;7.97;;;;;;;11.66;88.61;98554.72;5053647;28;20040;-94
2021/11/15 04:19:38;;;;;;;15.77;8.07;;;;;;;11.61;88.58;98553.16;5054939;28;20073;-94
2021/11/15 04:22:04;;;;;;;17.35;8.43;;;;;;;11.75;87.03;98542.84;5054432;28;20181;-94
2021/11/15 04:24:30;;;;;;;14.95;7.80;;;;;;;11.89;85.29;98532.63;5056155;28;20072;-94
2021/11/15 04:26:56;;;;;;;14.23;7.50;;;;;;;11.94;85.32;98535.13;5056160;28;20033;-94
2021/11/15 04:29:22;;;;;;;13.40;7.07;;;;;;;12.02;83.73;98533.06;5056549;28;20046;-94
2021/11/15 04:31:48;;;;;;;11.85;6.80;;;;;;;12.12;83.63;98544.22;5054177;28;20045;-92
2021/11/15 04:34:14;;;;;;;18.88;8.27;;;;;;;12.01;83.93;98523.28;5060239;28;20083;-94
2021/11/15 04:36:45;;;;;;;15.30;7.18;;;;;;;12.17;83.50;98542.28;5060176;28;20049;-93
2021/11/15 04:39:11;;;;;;;12.57;7.38;;;;;;;12.01;83.36;98519.78;5060363;28;20037;-94
2021/11/15 04:41:38;;;;;;;13.60;7.40;;;;;;;12.07;83.17;98531.06;5059963;28;20051;-93
2021/11/15 04:44:04;;;;;;;14.95;7.47;;;;;;;12.16;83.42;98535.19;5060332;28;20071;-94
2021/11/15 04:46:30;;;;;;;11.93;6.88;;;;;;;12.18;82.43;98532.47;5058338;28;20045;-94
2021/11/15 04:48:56;;;;;;;12.52;7.10;;;;;;;12.16;83.36;98523.66;5058591;28;20047;-95
2021/11/15 04:51:22;;;;;;;13.38;7.07;;;;;;;12.00;83.16;98515.38;5054260;28;20055;-95
2021/11/15 04:53:49;;;;;;;15.02;7.57;;;;;;;12.07;83.45;98530.22;5060515;28;20443;-94
2021/11/15 04:56:15;;;;;;;13.95;7.32;;;;;;;12.00;85.16;98532.22;5059932;28;20044;-94
2021/11/15 04:58:41;;;;;;;13.23;6.78;;;;;;;11.89;85.47;98527.28;5060552;28;20040;-94
2021/11/15 05:01:08;;;;;;;14.73;7.20;;;;;;;11.91;83.65;98520.13;5060498;28;20072;-93
2021/11/15 05:03:35;;;;;;;11.55;6.95;;;;;;;12.00;83.22;98523.38;5060500;28;20048;-93
2021/11/15 05:06:02;;;;;;;14.13;7.68;;;;;;;12.04;83.44;98525.00;5060108;28;20033;-95
2021/11/15 05:08:28;;;;;;;15.73;7.35;;;;;;;12.16;82.96;98539.66;5059638;28;20048;-94
2021/11/15 05:10:55;;;;;;;12.68;6.63;;;;;;;12.14;83.10;98539.72;5060635;28;20063;-93
2021/11/15 05:13:21;;;;;;;13.82;6.93;;;;;;;12.04;82.99;98525.88;5060071;28;20064;-93
2021/11/15 05:15:47;;;;;;;14.27;7.63;;;;;;;12.36;81.32;98545.13;5058620;28;20528;-95
2021/11/15 05:18:13;;;;;;;14.45;6.80;;;;;;;12.27;81.31;98525.03;5060362;28;20407;-94
2021/11/15 05:20:39;;;;;;;12.20;7.13;;;;;;;12.26;80.84;98527.72;5060007;28;20076;-94
2021/11/15 05:23:05;;;;;;;13.88;6.95;;;;;;;12.33;80.62;98534.56;5059862;28;20040;-94
2021/11/15 05:25:31;;;;;;;13.52;7.28;;;;;;;12.36;80.23;98533.56;5059325;28;20123;-93
2021/11/15 05:27:59;;;;;;;18.33;7.25;;;;;;;12.42;80.16;98538.69;5059616;28;20036;-93
2021/11/15 05:30:27;;;;;;;11.63;6.63;;;;;;;12.51;80.18;98557.88;5057488;28;20060;-95
2021/11/15 05:32:55;;;;;;;13.48;6.82;;;;;;;12.43;80.30;98551.97;5060299;28;20051;-93
2021/11/15 05:35:24;;;;;;;12.57;6.38;;;;;;;12.39;81.19;98550.34;5059101;28;20041;-94
2021/11/15 05:37:50;;;;;;;10.90;6.28;;;;;;;12.42;80.79;98571.53;5057157;28;20446;-95
2021/11/15 05:40:17;;;;;;;13.63;6.32;;;;;;;12.35;80.94;98555.84;5059533;28;20037;-94
2021/11/15 05:42:43;;;;;;;10.55;6.30;;;;;;;12.24;82.79;98565.09;5059421;28;20037;-94
2021/11/15 05:45:16;;;;;;;12.10;6.88;;;;;;;12.11;82.33;98548.69;5056843;28;20041;-93
2021/11/15 05:47:42;;;;;;;10.82;6.80;;;;;;;12.20;81.90;98549.28;5059703;28;20044;-94
2021/11/15 05:50:10;;;;;;;11.23;6.35;;;;;;;12.18;82.19;98553.81;5060106;28;20537;-95
2021/11/15 05:55:37;;;;;;;10.77;6.40;;;;;;;12.43;80.75;98583.97;5073969;27;20383;-94
2021/11/15 05:58:03;;;;;;;11.38;6.60;;;;;;;12.35;81.49;98575.38;5073156;28;20051;-94
2021/11/15 06:00:31;;;;;;;14.38;6.45;;;;;;;12.24;81.15;98556.25;5073882;28;20043;-94
2021/11/15 06:02:57;;;;;;;13.82;6.75;;;;;;;12.42;81.74;98600.00;5076941;28;20040;-94
2021/11/15 06:05:24;;;;;;;12.07;6.68;;;;;;;12.26;80.82;98565.91;5076536;28;20041;-94
2021/11/15 06:07:51;;;;;;;9.75;6.25;;;;;;;12.27;81.94;98570.34;5072138;28;20460;-93
2021/11/15 06:10:17;;;;;;;10.88;6.28;;;;;;;12.25;81.10;98561.53;5073683;28;20044;-94
2021/11/15 06:12:44;;;;;;;13.40;6.75;;;;;;;12.25;81.92;98565.97;5076445;28;20049;-94
2021/11/15 06:15:13;;;;;;;10.93;6.13;;;;;;;12.35;81.55;98594.03;5074449;28;20035;-95
2021/11/15 06:17:39;;;;;;;14.13;7.22;;;;;;;12.25;83.32;98585.53;5075381;28;20043;-93
2021/11/15 06:20:08;;;;;;;12.60;6.63;;;;;;;12.29;82.33;98588.94;5074424;28;20068;-93
2021/11/15 06:22:36;;;;;;;11.73;6.50;;;;;;;12.24;81.24;98574.91;5074046;28;20052;-93
2021/11/15 06:25:03;;;;;;;12.63;6.82;;;;;;;12.51;80.47;98595.22;5073555;28;20045;-95
2021/11/15 06:27:28;;;;;;;12.35;6.50;;;;;;;12.49;79.97;98589.06;5075386;28;20058;-95
2021/11/15 06:29:56;;;;;;;15.63;6.70;;;;;;;12.44;80.41;98584.81;5073068;28;20041;-92
2021/11/15 06:32:22;;;;;;;13.07;6.68;;;;;;;12.57;80.60;98617.25;5070007;28;20045;-92
2021/11/15 06:34:48;;;;;;;12.43;6.15;;;;;;;12.71;79.41;98633.63;5071920;28;20041;-92
2021/11/15 06:37:14;;;;;;;12.40;6.35;;;;;;;12.64;79.22;98613.41;5071785;28;20037;-93
2021/11/15 06:39:40;;;;;;;17.45;10.20;;;;;;;12.66;79.92;98631.09;5072095;28;20045;-93
2021/11/15 06:42:08;;;;;;;17.27;8.27;;;;;;;12.55;79.68;98622.63;5072078;28;20449;-94
2021/11/15 06:44:35;;;;;;;;;;;;;;;12.70;79.68;98650.53;5070969;28;20850;-94
2021/11/15 06:47:07;;;;;;;11.25;6.50;;;;;;;12.71;79.03;98636.28;5071230;28;19921;-95
2021/11/15 06:49:34;;;;;;;12.85;6.72;;;;;;;12.58;79.55;98632.31;5071638;28;20067;-93
2021/11/15 06:52:00;;;;;;;13.82;7.97;;;;;;;12.66;80.56;98649.75;5073165;28;20044;-94
2021/11/15 06:54:26;;;;;;;15.25;8.77;;;;;;;12.55;80.43;98641.28;5074545;28;20136;-94
2021/11/15 06:56:53;;;;;;;12.38;7.90;;;;;;;12.59;81.13;98668.75;5074030;28;20114;-94
2021/11/15 06:59:20;;;;;;;14.57;7.70;;;;;;;12.56;80.68;98661.72;5071756;28;20080;-94
2021/11/15 07:01:46;;;;;;;14.80;8.05;;;;;;;12.49;83.12;98668.19;5072762;28;20119;-93
2021/11/15 07:04:14;;;;;;;46.75;28.35;;;;;;;12.39;85.10;98667.66;5076068;28;20051;-93
2021/11/15 07:06:42;;;;;;;31.88;18.98;;;;;;;12.25;86.10;98670.84;5062784;28;20045;-95
2021/11/15 07:09:09;;;;;;;28.38;16.00;;;;;;;12.14;87.43;98673.00;5059886;28;20068;-92
2021/11/15 07:11:37;;;;;;;26.10;15.65;;;;;;;12.07;88.71;98691.00;5058038;28;20048;-92
2021/11/15 07:14:05;;;;;;;25.75;14.73;;;;;;;11.95;90.17;98698.53;5063218;28;20095;-93
2021/11/15 07:16:31;;;;;;;27.30;16.08;;;;;;;11.90;91.12;98704.03;5062115;28;20102;-94
2021/11/15 07:18:57;;;;;;;24.77;15.02;;;;;;;11.83;91.78;98692.66;5062329;28;20056;-92
2021/11/15 07:21:25;;;;;;;24.98;14.05;;;;;;;11.80;93.18;98702.56;5061477;28;20070;-93
2021/11/15 07:23:52;;;;;;;21.83;11.52;;;;;;;11.73;93.60;98693.88;5057554;28;20052;-92
2021/11/15 07:29:21;;;;;;;10.57;6.25;;;;;;;12.27;82.20;98698.31;5190442;27;20401;-93
2021/11/15 07:31:47;;;;;;;14.20;7.22;;;;;;;12.41;84.07;98689.81;5149854;27;20039;-92
2021/11/15 07:34:16;;;;;;;10.48;6.57;;;;;;;12.59;79.68;98684.75;5149446;27;20043;-94
2021/11/15 07:36:42;;;;;;;14.00;6.50;;;;;;;13.02;79.40;98713.38;5154220;27;20503;-93
2021/11/15 07:39:09;;;;;;;13.40;6.32;;;;;;;13.18;78.14;98694.94;5152973;27;20051;-90
2021/11/15 07:41:35;;;;;;;12.32;6.30;;;;;;;13.29;76.96;98692.78;5153037;27;20444;-93
2021/11/15 07:44:01;;;;;;;10.25;5.85;;;;;;;13.34;77.50;98698.81;5156075;27;20126;-94
2021/11/15 07:46:32;;;;;;;11.38;6.22;;;;;;;13.47;76.50;98693.84;5151055;27;20175;-94
2021/11/15 07:49:03;;;;;;;13.65;6.20;;;;;;;13.69;75.52;98715.22;5155900;27;20031;-93
2021/11/15 07:51:34;;;;;;;10.15;5.65;;;;;;;13.70;76.69;98724.97;5151590;27;20055;-93
2021/11/15 07:54:01;;;;;;;12.55;7.18;;;;;;;13.54;79.47;98708.69;5157803;27;20042;-94
2021/11/15 07:56:27;;;;;;;28.05;16.05;;;;;;;13.62;81.04;98711.06;5149535;27;20388;-91
2021/11/15 07:58:53;;;;;;;37.08;20.10;;;;;;;13.60;83.60;98702.25;5149615;27;20213;-95
2021/11/15 08:01:20;;;;;;;48.58;27.95;;;;;;;13.67;84.15;98706.41;5152905;27;20045;-92
2021/11/15 08:03:47;;;;;;;23.23;11.80;;;;;;;13.69;80.65;98704.53;5148556;27;20047;-93
2021/11/15 08:06:16;;;;;;;12.10;6.80;;;;;;;13.99;75.59;98722.94;5151140;27;20122;-93
2021/11/15 08:08:43;;;;;;;12.63;6.75;;;;;;;14.03;74.61;98702.25;5148472;27;20687;-92
2021/11/15 08:11:10;;;;;;;10.90;6.07;;;;;;;14.23;74.45;98718.34;5152755;27;20081;-93
2021/11/15 08:13:36;;;;;;;12.88;6.55;;;;;;;14.31;74.47;98705.53;5155110;27;20039;-94
2021/11/15 08:16:04;;;;;;;12.90;5.82;;;;;;;14.28;74.58;98707.44;5147036;27;20072;-95
2021/11/15 08:18:30;;;;;;;14.07;6.03;;;;;;;14.35;74.47;98712.44;5148433;27;20031;-93
2021/11/15 08:20:59;;;;;;;14.02;6.60;;;;;;;14.55;73.55;98733.03;5150612;27;20043;-94
2021/11/15 08:23:27;;;;;;;11.85;6.47;;;;;;;14.46;73.23;98711.13;5156997;27;20047;-93
2021/11/15 08:26:26;;;;;;;13.93;6.43;;;;;;;14.73;73.84;98751.91;5145913;27;20039;-93
2021/11/15 08:28:59;;;;;;;10.50;5.70;;;;;;;14.60;72.43;98705.22;5151685;27;20287;-94
2021/11/15 08:31:25;;;;;;;12.80;6.25;;;;;;;14.75;72.47;98739.31;5154054;27;20041;-95
2021/11/15 08:33:51;;;;;;;12.23;6.55;;;;;;;14.91;72.08;98737.66;5152486;27;20047;-94
2021/11/15 08:36:19;;;;;;;12.90;6.40;;;;;;;15.14;72.39;98759.88;5144706;27;20039;-95
2021/11/15 08:38:51;;;;;;;12.70;6.40;;;;;;;15.08;71.12;98733.38;5143918;27;20043;-92
2021/11/15 08:41:21;;;;;;;12.52;6.05;;;;;;;15.10;71.51;98740.38;5133098;27;20056;-94
2021/11/15 08:43:47;;;;;;;19.33;9.82;;;;;;;15.18;72.10;98748.09;5136134;27;20043;-93
2021/11/15 08:49:17;;;;;;;11.80;6.32;;;;;;;15.24;70.06;98725.47;5148428;27;20135;-94
2021/11/15 08:51:45;;;;;;;11.52;6.30;;;;;;;15.50;69.72;98732.28;5132863;28;20046;-93
2021/11/15 08:54:16;;;;;;;9.75;6.13;;;;;;;15.76;68.74;98745.31;5133712;28;20047;-92
2021/11/15 08:56:43;;;;;;;11.98;6.13;;;;;;;15.78;68.08;98738.09;5131460;28;20040;-93
2021/11/15 08:59:12;;;;;;;11.77;6.25;;;;;;;15.83;67.34;98729.84;5134848;28;20131;-93
2021/11/15 09:01:40;;;;;;;9.95;5.88;;;;;;;16.17;66.94;98741.56;5127734;28;20040;-93
2021/11/15 09:04:08;;;;;;;11.02;6.28;;;;;;;16.05;65.87;98743.06;5128331;28;20135;-93
2021/11/15 09:06:36;;;;;;;9.77;6.03;;;;;;;16.14;66.81;98757.81;5124739;28;20048;-93
2021/11/15 09:09:03;;;;;;;13.75;6.45;;;;;;;15.78;68.06;98726.50;5130524;28;20059;-93
2021/11/15 09:11:30;;;;;;;12.25;6.28;;;;;;;15.59;69.77;98758.63;5129032;28;20127;-95
2021/11/15 09:13:58;;;;;;;12.13;6.75;;;;;;;15.09;71.27;98743.13;5138637;28;20043;-93
2021/11/15 09:16:25;;;;;;;9.75;5.93;;;;;;;14.99;72.77;98732.84;5130128;28;20051;-94
2021/11/15 09:18:51;;;;;;;10.30;6.30;;;;;;;15.08;70.63;98728.88;5136000;28;20031;-94
2021/11/15 09:21:19;;;;;;;10.55;5.60;;;;;;;15.44;70.53;98737.94;5128210;28;20903;-93
2021/11/15 09:23:47;;;;;;;13.60;6.63;;;;;;;15.78;67.49;98735.41;5128102;28;20550;-93
2021/11/15 09:26:18;;;;;;;12.15;6.30;;;;;;;15.88;68.92;98740.34;5131552;28;20380;-93
2021/11/15 09:28:45;;;;;;;14.55;6.38;;;;;;;15.95;68.57;98742.63;5132611;28;20488;-93
2021/11/15 09:31:11;;;;;;;13.18;6.20;;;;;;;16.28;66.82;98759.78;5128162;28;20044;-93
2021/11/15 09:33:38;;;;;;;10.13;5.75;;;;;;;16.47;63.76;98740.94;5118759;28;20476;-93
2021/11/15 09:36:05;;;;;;;10.13;5.72;;;;;;;16.57;63.24;98737.72;5130847;28;20043;-94
2021/11/15 09:38:32;;;;;;;9.40;5.72;;;;;;;16.40;62.86;98729.66;5125965;28;20420;-95
2021/11/15 09:41:04;;;;;;;9.95;5.25;;;;;;;16.47;62.70;98736.44;5127502;28;20048;-93
2021/11/15 09:46:34;;;;;;;9.27;5.80;;;;;;;16.21;63.90;98762.78;5132347;27;20375;-95
2021/11/15 09:49:05;;;;;;;9.63;5.40;;;;;;;16.41;64.09;98751.03;5133126;27;20067;-94
2021/11/15 09:51:31;;;;;;;7.63;5.63;;;;;;;16.66;62.46;98751.59;5131708;27;20063;-92
2021/11/15 09:53:58;;;;;;;9.82;5.90;;;;;;;16.63;62.32;98744.56;5132667;27;20077;-95
2021/11/15 09:56:24;;;;;;;26.33;16.45;;;;;;;16.90;69.91;98758.41;5133280;27;20424;-92
2021/11/15 09:58:51;;;;;;;15.27;9.27;;;;;;;16.68;66.61;98731.78;5136210;27;20072;-91
2021/11/15 10:01:17;;;;;;;12.43;7.22;;;;;;;16.74;62.34;98731.47;5131781;28;20558;-94
2021/11/15 10:03:45;;;;;;;12.00;6.68;;;;;;;16.84;62.06;98729.16;5132525;27;20042;-94
2021/11/15 10:06:11;;;;;;;15.98;9.50;;;;;;;16.90;64.55;98720.78;5133104;27;20046;-93
2021/11/15 10:08:45;;;;;;;8.68;5.80;;;;;;;16.89;63.29;98735.16;5133750;27;20099;-94
2021/11/15 10:11:11;;;;;;;10.35;5.32;;;;;;;16.79;62.08;98737.44;5133554;27;20066;-95
2021/11/15 10:13:40;;;;;;;9.05;5.38;;;;;;;16.56;63.83;98717.16;5132930;27;20130;-95
2021/11/15 10:16:09;;;;;;;10.05;5.68;;;;;;;16.38;63.36;98721.69;5134656;27;20050;-95
2021/11/15 10:18:46;;;;;;;10.10;5.65;;;;;;;16.16;64.17;98723.72;5133762;27;20040;-93
2021/11/15 10:21:17;;;;;;;10.88;5.68;;;;;;;16.13;64.46;98716.69;5134100;27;20047;-94
2021/11/15 10:23:47;;;;;;;10.57;5.78;;;;;;;16.16;66.06;98721.91;5132881;27;20114;-94
2021/11/15 10:26:26;;;;;;;8.32;5.70;;;;;;;16.08;66.40;98717.88;5133397;27;20438;-95
2021/11/15 10:28:53;;;;;;;;;;;;;;;16.13;67.03;98740.81;5124110;28;20039;-93
2021/11/15 10:31:36;;;;;;;9.52;5.68;;;;;;;15.99;65.32;98721.91;5132660;28;19916;-93
2021/11/15 10:34:07;;;;;;;10.85;5.55;;;;;;;16.21;66.37;98735.94;5132181;27;20122;-94
2021/11/15 10:37:09;;;;;;;9.77;5.13;;;;;;;16.30;64.52;98713.16;5132243;27;20097;-93
2021/11/15 10:39:40;;;;;;;8.98;5.22;;;;;;;16.49;64.09;98706.84;5124186;28;20370;-94
2021/11/15 10:42:11;;;;;;;10.57;5.60;;;;;;;16.71;63.51;98728.06;5132333;27;20520;-94
2021/11/15 10:44:44;;;;;;;10.85;5.15;;;;;;;16.68;63.11;98712.13;5131718;27;20062;-94
2021/11/15 10:55:05;;;;;;;11.00;5.68;;;;;;;16.79;61.60;98723.16;5053006;28;20052;-95
2021/11/15 10:58:27;;;;;;;9.05;4.65;;;;;;;16.91;59.56;98706.41;5051720;28;20041;-94
2021/11/15 11:00:58;;;;;;;9.88;5.53;;;;;;;17.01;62.12;98714.84;4956710;28;20499;-94
2021/11/15 11:27:17;;;;;;;9.48;4.68;;;;;;;17.45;55.66;98666.66;5093923;27;20366;-94
2021/11/15 11:29:45;;;;;;;7.20;4.57;;;;;;;17.46;56.17;98670.25;5093964;28;20041;-95
2021/11/15 11:32:15;;;;;;;11.45;4.97;;;;;;;17.52;57.68;98683.34;5093139;28;20490;-95
2021/11/15 11:34:43;;;;;;;8.45;5.03;;;;;;;17.37;58.39;98671.63;5093735;28;20102;-94
2021/11/15 11:37:11;;;;;;;8.52;4.82;;;;;;;17.24;57.75;98662.53;5095216;28;20123;-94
2021/11/15 11:39:37;;;;;;;10.27;4.93;;;;;;;17.32;58.29;98686.28;5095330;28;20046;-94
2021/11/15 11:42:05;;;;;;;9.80;4.88;;;;;;;17.27;57.43;98678.47;5096375;28;20040;-93
2021/11/15 11:44:33;;;;;;;9.93;4.80;;;;;;;17.30;57.49;98655.94;5089281;28;20079;-93
2021/11/15 11:47:03;;;;;;;6.47;4.32;;;;;;;17.21;57.66;98641.19;5093572;28;20040;-93
2021/11/15 11:49:31;;;;;;;10.98;4.50;;;;;;;17.19;57.65;98633.19;5094842;28;20040;-94
2021/11/15 11:51:59;;;;;;;6.53;4.60;;;;;;;17.42;57.01;98644.50;5093843;28;20052;-94
2021/11/15 11:54:28;;;;;;;8.93;4.95;;;;;;;17.53;56.78;98651.94;5093607;28;20044;-93
2021/11/15 11:57:07;;;;;;;9.13;4.72;;;;;;;17.61;57.71;98644.31;5094313;28;20048;-95
2021/11/15 11:59:36;;;;;;;9.25;4.65;;;;;;;17.58;56.96;98636.41;5094668;28;20048;-92
2021/11/15 12:02:07;;;;;;;8.07;4.70;;;;;;;17.63;57.85;98654.03;5093994;28;20167;-92
2021/11/15 12:04:45;;;;;;;7.85;4.20;;;;;;;17.51;57.97;98645.78;5094789;28;20464;-95
2021/11/15 12:07:28;;;;;;;8.20;4.70;;;;;;;17.34;57.29;98642.22;5095573;28;20047;-93
2021/11/15 12:09:56;;;;;;;8.88;4.65;;;;;;;17.18;57.75;98626.13;5094458;28;20113;-94